Aviation Digital Data Service (ADDS)

Output produced by METARs form (2125 UTC 24 January 2017)
found at http://www.aviationweather.gov/adds/metars/
 
KROW 242051Z 25023G28KT 10SM CLR 15/M09 A2968 RMK AO2 PK WND 26037/2004 SLP018 T01501094 55012
KROW 241951Z 25022G32KT 10SM CLR 16/M08 A2968 RMK AO2 PK WND 24036/1934 SLP012 T01561083
KROW 241851Z 27018G29KT 10SM CLR 15/M07 A2970 RMK AO2 PK WND 26037/1815 SLP018 T01501072
KROW 241751Z 26027G37KT 10SM CLR 14/M08 A2972 RMK AO2 PK WND 26040/1736 SLP028 T01441078 10144 20033 50009
KROW 241651Z 26026G34KT 10SM CLR 13/M05 A2972 RMK AO2 PK WND 26039/1628 SLP029 T01331050
KROW 241551Z 27022G28KT 10SM CLR 12/M02 A2970 RMK AO2 PK WND 26028/1550 SLP024 T01221022
KROW 241451Z 28011KT 10SM CLR 10/00 A2969 RMK AO2 SLP024 T01000000 53025
KROW 241351Z 27009KT 10SM CLR 08/M01 A2967 RMK AO2 SLP017 T00781006
KROW 241251Z VRB06KT 10SM CLR 04/M03 A2963 RMK AO2 SLP005 T00441028
KROW 241151Z AUTO 26007KT 10SM CLR 07/M02 A2961 RMK AO2 SLP988 T00721022 10122 20050 53001
KROW 241051Z AUTO 23007KT 10SM CLR 06/M02 A2960 RMK AO2 SLP982 T00611017
KROW 240951Z AUTO 22008KT 10SM CLR 07/M02 A2959 RMK AO2 SLP975 T00721022
KROW 240851Z AUTO 22010KT 10SM CLR 08/M03 A2960 RMK AO2 SLP980 T00831033 55013
KROW 240751Z AUTO 22014KT 10SM CLR 12/M03 A2960 RMK AO2 SLP976 T01171033
KROW 240651Z AUTO 22016KT 10SM CLR 12/M04 A2962 RMK AO2 SLP985 T01221039 402391022
KROW 240551Z AUTO 21015KT 10SM CLR 12/M04 A2965 RMK AO2 SLP002 T01171039 10194 20072 56020
KROW 240451Z AUTO 21014KT 10SM CLR 12/M04 A2967 RMK AO2 SLP014 T01221039 TSNO
KROW 240351Z AUTO 22011KT 10SM CLR 11/M03 A2968 RMK AO2 SLP027 T01111028
KROW 240251Z 25005KT 10SM CLR 11/M04 A2971 RMK AO2 SLP043 T01061039 58005
KROW 240151Z 23007KT 10SM CLR 12/M03 A2973 RMK AO2 SLP053 T01171033
KROW 240051Z 21013KT 10SM CLR 16/M02 A2974 RMK AO2 SLP048 T01561022
KROW 232351Z 22019G28KT 10SM CLR 19/M02 A2973 RMK AO2 PK WND 23033/2308 SLP038 T01941022 10239 20139 55011
KROW 232251Z 22020G32KT 10SM CLR 22/M02 A2971 RMK AO2 PK WND 21032/2244 SLP031 T02171017
KROW 232151Z 24020G30KT 10SM CLR 23/M02 A2974 RMK AO2 PK WND 23034/2130 SLP038 T02331022
KROW 241732Z 2418/2518 27028G38KT P6SM SKC 
     FM250000 28020G30KT P6SM SCT120 
     FM250300 30011KT P6SM SCT120 
     FM250700 32007KT P6SM FEW120